Time;durP1;ratioP1;P1;durP2;ratioP2;P2;SDS_P1;SDS_P2;PMS_P1;PMS_P2;Temp;Humidity;BMP_temperature;BMP_pressure;BME280_temperature;BME280_humidity;BME280_pressure;Samples;Min_cycle;Max_cycle;Signal;HPM_P1;HPM_P2
2021/05/04 00:00:23;;;;;;;8.02;3.20;;;11.20;79.50;;;;;;5051057;28;20068;-70
2021/05/04 00:02:49;;;;;;;7.45;2.92;;;11.10;80.00;;;;;;5041749;28;20055;-70
2021/05/04 00:05:16;;;;;;;5.90;2.88;;;11.00;82.40;;;;;;5050004;28;20079;-70
2021/05/04 00:07:42;;;;;;;6.35;3.08;;;10.90;82.00;;;;;;5043214;28;20131;-70
2021/05/04 00:10:09;;;;;;;7.07;3.70;;;10.90;83.70;;;;;;5051223;28;20065;-70
2021/05/04 00:12:35;;;;;;;6.15;3.30;;;10.90;85.30;;;;;;5042661;28;20049;-70
2021/05/04 00:15:04;;;;;;;4.70;2.92;;;10.80;85.40;;;;;;5032258;28;20046;-70
2021/05/04 00:17:30;;;;;;;5.60;3.20;;;10.80;85.10;;;;;;5044381;28;20155;-69
2021/05/04 00:19:57;;;;;;;4.95;2.50;;;10.70;86.20;;;;;;5052041;28;20056;-70
2021/05/04 00:22:23;;;;;;;8.32;3.17;;;10.70;89.30;;;;;;5048442;28;20048;-70
2021/05/04 00:24:49;;;;;;;4.75;2.40;;;10.60;89.40;;;;;;5050111;28;20052;-70
2021/05/04 00:27:15;;;;;;;11.02;3.33;;;10.60;91.40;;;;;;5043159;28;20045;-70
2021/05/04 00:29:43;;;;;;;6.70;3.10;;;10.50;91.60;;;;;;5050203;28;20555;-70
2021/05/04 00:32:09;;;;;;;9.38;3.22;;;10.40;91.70;;;;;;5043972;28;20056;-70
2021/05/04 00:34:39;;;;;;;4.45;2.60;;;10.30;91.50;;;;;;5035203;28;20485;-70
2021/05/04 00:37:05;;;;;;;6.88;2.85;;;10.20;92.70;;;;;;5045499;28;20473;-70
2021/05/04 00:39:35;;;;;;;4.40;2.80;;;10.10;93.80;;;;;;5049492;28;20047;-70
2021/05/04 00:42:03;;;;;;;4.93;2.75;;;10.00;95.00;;;;;;5045481;28;20117;-70
2021/05/04 00:44:29;;;;;;;4.90;2.95;;;9.90;96.10;;;;;;5048967;28;20057;-70
2021/05/04 00:46:56;;;;;;;3.72;2.97;;;9.80;96.90;;;;;;5045332;28;20496;-70
2021/05/04 00:49:22;;;;;;;4.75;2.83;;;9.70;96.00;;;;;;5049042;28;20056;-70
2021/05/04 00:51:52;;;;;;;4.82;3.03;;;9.70;98.10;;;;;;5046126;28;20475;-70
2021/05/04 00:54:19;;;;;;;5.22;2.90;;;9.60;97.90;;;;;;5048763;28;20132;-70
2021/05/04 00:56:46;;;;;;;8.25;2.85;;;9.50;98.10;;;;;;5046606;28;20057;-70
2021/05/04 00:59:13;;;;;;;6.80;2.80;;;9.50;98.60;;;;;;5041459;28;20045;-70
2021/05/04 01:01:39;;;;;;;5.30;2.85;;;9.50;99.90;;;;;;5054825;28;20038;-70
2021/05/04 01:04:07;;;;;;;4.70;3.30;;;9.40;99.80;;;;;;5041993;28;20098;-70
2021/05/04 01:06:33;;;;;;;3.92;2.28;;;9.40;99.90;;;;;;5048287;28;20045;-70
2021/05/04 01:08:59;;;;;;;5.35;2.40;;;9.30;99.90;;;;;;5049803;28;20176;-70
2021/05/04 01:11:26;;;;;;;6.88;3.33;;;9.30;99.80;;;;;;5049288;28;20045;-70
2021/05/04 01:13:55;;;;;;;6.40;2.97;;;9.30;99.90;;;;;;5047702;28;20055;-71
2021/05/04 01:16:21;;;;;;;4.65;3.25;;;9.30;99.90;;;;;;5049364;28;20080;-70
2021/05/04 01:18:48;;;;;;;8.48;3.17;;;9.20;99.90;;;;;;5039388;28;20049;-70
2021/05/04 01:21:15;;;;;;;6.15;3.13;;;9.20;99.90;;;;;;5050000;28;20045;-70
2021/05/04 01:23:41;;;;;;;4.13;2.45;;;9.10;99.90;;;;;;5046504;28;20049;-70
2021/05/04 01:26:07;;;;;;;6.13;3.22;;;9.10;99.90;;;;;;5049827;28;20428;-70
2021/05/04 01:28:34;;;;;;;4.85;2.72;;;9.00;99.90;;;;;;5040802;28;20089;-70
2021/05/04 01:31:00;;;;;;;6.90;3.08;;;8.90;99.90;;;;;;5034762;28;20044;-70
2021/05/04 01:33:26;;;;;;;5.47;2.78;;;8.90;99.90;;;;;;5039462;28;20187;-70
2021/05/04 01:35:53;;;;;;;3.72;2.42;;;8.80;99.90;;;;;;5048963;28;20528;-70
2021/05/04 01:38:19;;;;;;;8.38;3.00;;;8.80;99.90;;;;;;5040027;28;20472;-70
2021/05/04 01:40:46;;;;;;;6.40;2.83;;;8.80;99.90;;;;;;5049742;28;20045;-70
2021/05/04 01:43:12;;;;;;;3.80;2.78;;;8.80;99.90;;;;;;5045663;28;20128;-71
2021/05/04 01:45:38;;;;;;;7.57;2.40;;;8.80;99.90;;;;;;5049706;28;20133;-70
2021/05/04 01:48:05;;;;;;;4.47;2.63;;;8.70;99.90;;;;;;5042580;28;20053;-71
2021/05/04 01:50:31;;;;;;;3.45;2.40;;;8.70;99.90;;;;;;5048017;28;20055;-70
2021/05/04 01:52:57;;;;;;;3.53;2.45;;;8.60;99.90;;;;;;5040942;28;20076;-71
2021/05/04 01:55:24;;;;;;;4.97;2.60;;;8.60;99.90;;;;;;5048962;28;20126;-70
2021/05/04 01:57:50;;;;;;;4.60;2.67;;;8.60;99.90;;;;;;5046772;28;20586;-70
2021/05/04 02:00:19;;;;;;;4.32;2.50;;;8.60;99.90;;;;;;5048726;28;20059;-70
2021/05/04 02:02:46;;;;;;;5.95;2.92;;;8.60;99.90;;;;;;5036265;28;20055;-70
2021/05/04 02:05:13;;;;;;;3.60;2.03;;;8.60;99.90;;;;;;5047124;28;20077;-70
2021/05/04 02:07:39;;;;;;;3.33;1.98;;;8.60;99.90;;;;;;5044101;28;20045;-70
2021/05/04 02:10:06;;;;;;;4.85;3.00;;;8.60;99.90;;;;;;5048991;28;20427;-70
2021/05/04 02:12:33;;;;;;;4.57;2.40;;;8.60;99.90;;;;;;5042548;28;20144;-70
2021/05/04 02:14:59;;;;;;;3.63;2.47;;;8.60;99.90;;;;;;5047875;28;20067;-70
2021/05/04 02:17:25;;;;;;;8.55;2.58;;;8.50;99.90;;;;;;5045446;28;20053;-70
2021/05/04 02:19:52;;;;;;;4.55;2.60;;;8.50;99.90;;;;;;5048300;28;20045;-71
2021/05/04 02:22:23;;;;;;;3.25;2.17;;;8.60;99.90;;;;;;5044895;28;20041;-71
2021/05/04 02:24:49;;;;;;;6.28;2.65;;;8.60;99.90;;;;;;5048308;28;20096;-70
2021/05/04 02:27:16;;;;;;;2.92;1.83;;;8.50;99.90;;;;;;5043302;28;20128;-70
2021/05/04 02:29:43;;;;;;;4.25;2.58;;;8.50;99.90;;;;;;5047096;28;20136;-70
2021/05/04 02:32:10;;;;;;;6.50;2.35;;;8.50;99.90;;;;;;5047008;28;20052;-70
2021/05/04 02:34:36;;;;;;;5.18;2.50;;;8.50;99.90;;;;;;5048119;28;20452;-70
2021/05/04 02:37:03;;;;;;;5.15;2.30;;;8.60;99.90;;;;;;5045387;28;20128;-70
2021/05/04 02:39:29;;;;;;;3.75;2.45;;;8.60;99.90;;;;;;5048629;28;20151;-70
2021/05/04 02:41:55;;;;;;;3.03;2.17;;;8.60;99.90;;;;;;5045369;28;20135;-70
2021/05/04 02:45:05;;;;;;;3.25;2.30;;;8.70;99.90;;;;;;5047088;28;20140;-70
2021/05/04 02:47:32;;;;;;;5.63;3.03;;;8.60;99.90;;;;;;5036526;28;20053;-70
2021/05/04 02:49:58;;;;;;;4.05;2.20;;;8.60;99.90;;;;;;5048622;28;20136;-71
2021/05/04 02:52:24;;;;;;;3.55;2.10;;;8.60;99.90;;;;;;5046589;28;20068;-70
2021/05/04 02:54:50;;;;;;;4.30;2.22;;;8.50;99.90;;;;;;5047912;28;20049;-70
2021/05/04 02:57:17;;;;;;;3.22;2.10;;;8.50;99.90;;;;;;5042357;28;20050;-70
2021/05/04 02:59:44;;;;;;;7.57;3.15;;;8.50;99.90;;;;;;5045808;28;20398;-70
2021/05/04 03:02:11;;;;;;;5.43;2.75;;;8.40;99.90;;;;;;5050107;28;20498;-70
2021/05/04 03:04:38;;;;;;;3.75;2.38;;;8.40;99.90;;;;;;5051813;28;20115;-71
2021/05/04 03:07:05;;;;;;;4.53;2.53;;;8.40;99.90;;;;;;5049446;28;20047;-70
2021/05/04 03:09:31;;;;;;;4.28;2.40;;;8.40;99.90;;;;;;5052044;28;20049;-70
2021/05/04 03:11:57;;;;;;;6.55;2.28;;;8.40;99.90;;;;;;5049182;28;20056;-70
2021/05/04 03:14:24;;;;;;;3.88;2.25;;;8.40;99.90;;;;;;5038459;28;20129;-70
2021/05/04 03:16:51;;;;;;;3.88;2.42;;;8.40;99.90;;;;;;5035884;28;20049;-70
2021/05/04 03:19:18;;;;;;;3.13;1.90;;;8.40;99.90;;;;;;5046217;28;20099;-70
2021/05/04 03:21:44;;;;;;;3.42;2.22;;;8.50;99.90;;;;;;5043911;28;20465;-71
2021/05/04 03:24:11;;;;;;;3.38;2.13;;;8.50;99.90;;;;;;5046172;28;20091;-70
2021/05/04 03:26:37;;;;;;;2.85;1.90;;;8.60;99.90;;;;;;5045601;28;20163;-70
2021/05/04 03:29:04;;;;;;;2.67;1.60;;;8.70;99.90;;;;;;5047985;28;20049;-71
2021/05/04 03:31:30;;;;;;;3.53;1.98;;;8.80;99.90;;;;;;5034937;28;20055;-70
2021/05/04 03:33:57;;;;;;;2.92;2.00;;;8.80;99.90;;;;;;5046878;28;20536;-70
2021/05/04 03:36:23;;;;;;;3.75;2.40;;;8.70;99.90;;;;;;5050056;28;20049;-71
2021/05/04 03:38:50;;;;;;;5.13;2.22;;;8.70;99.90;;;;;;5050368;28;20182;-70
2021/05/04 03:41:16;;;;;;;5.53;2.83;;;8.60;99.90;;;;;;5051539;28;20495;-70
2021/05/04 03:43:42;;;;;;;4.88;2.92;;;8.50;99.90;;;;;;5048125;28;20131;-70
2021/05/04 03:46:08;;;;;;;3.83;2.42;;;8.40;99.90;;;;;;5051988;28;20049;-71
2021/05/04 03:48:35;;;;;;;4.25;2.08;;;8.40;99.90;;;;;;5049314;28;20048;-70
2021/05/04 03:51:01;;;;;;;4.07;2.08;;;8.30;99.90;;;;;;5051921;28;20063;-71
2021/05/04 03:53:27;;;;;;;4.13;2.25;;;8.30;99.90;;;;;;5048459;28;20076;-71
2021/05/04 03:55:53;;;;;;;5.57;2.50;;;8.30;99.90;;;;;;5047445;28;20068;-70
2021/05/04 03:58:20;;;;;;;2.85;1.95;;;8.30;99.90;;;;;;5048054;28;20184;-70
2021/05/04 04:00:46;;;;;;;4.28;2.60;;;8.20;99.90;;;;;;5051803;28;20049;-70
2021/05/04 04:03:12;;;;;;;7.32;3.25;;;8.20;99.90;;;;;;5031301;28;20045;-71
2021/05/04 04:05:38;;;;;;;3.03;1.92;;;8.20;99.90;;;;;;5050756;28;20249;-70
2021/05/04 04:08:05;;;;;;;5.72;2.40;;;8.20;99.90;;;;;;5048532;28;20136;-70
2021/05/04 04:10:31;;;;;;;2.95;2.00;;;8.30;99.90;;;;;;5053050;28;20543;-70
2021/05/04 04:12:58;;;;;;;4.00;2.08;;;8.30;99.90;;;;;;5047063;28;20091;-71
2021/05/04 04:15:24;;;;;;;5.85;2.80;;;8.30;99.90;;;;;;5050954;28;20053;-71
2021/05/04 04:17:51;;;;;;;4.70;2.65;;;8.30;99.90;;;;;;5047424;28;20049;-70
2021/05/04 04:20:17;;;;;;;5.30;2.67;;;8.30;99.90;;;;;;5050809;28;20045;-71
2021/05/04 04:22:43;;;;;;;4.47;2.80;;;8.30;99.90;;;;;;5047513;28;20382;-70
2021/05/04 04:25:10;;;;;;;3.97;2.63;;;8.30;99.90;;;;;;5050621;28;20490;-71
2021/05/04 04:27:37;;;;;;;4.15;2.50;;;8.30;99.90;;;;;;5048078;28;20049;-70
2021/05/04 04:30:03;;;;;;;2.67;1.88;;;8.30;99.90;;;;;;5050906;28;20126;-70
2021/05/04 04:32:30;;;;;;;3.35;2.10;;;8.30;99.90;;;;;;5041306;28;20087;-70
2021/05/04 04:34:56;;;;;;;3.42;1.85;;;8.30;99.90;;;;;;5042610;28;20155;-71
2021/05/04 04:37:22;;;;;;;4.72;2.08;;;8.30;99.90;;;;;;5042701;28;20103;-71
2021/05/04 04:39:48;;;;;;;3.20;2.10;;;8.40;99.90;;;;;;5049808;28;20476;-70
2021/05/04 04:42:15;;;;;;;2.92;1.80;;;8.40;99.90;;;;;;5047601;28;20135;-71
2021/05/04 04:44:42;;;;;;;3.50;1.83;;;8.40;99.90;;;;;;5049220;28;20136;-70
2021/05/04 04:47:11;;;;;;;3.10;1.85;;;8.40;99.90;;;;;;5042678;28;20055;-71
2021/05/04 04:49:38;;;;;;;2.75;1.83;;;8.40;99.90;;;;;;5050068;28;20210;-71
2021/05/04 04:52:05;;;;;;;2.97;2.08;;;8.50;99.90;;;;;;5044530;28;20478;-71
2021/05/04 04:54:32;;;;;;;3.38;1.58;;;8.50;99.90;;;;;;5045479;28;20140;-71
2021/05/04 04:57:00;;;;;;;2.60;1.90;;;8.50;99.90;;;;;;5046031;28;20060;-70
2021/05/04 04:59:26;;;;;;;3.83;1.80;;;8.60;99.90;;;;;;5049513;28;20052;-71
2021/05/04 05:01:52;;;;;;;5.97;2.85;;;8.60;99.90;;;;;;5044764;28;20465;-71
2021/05/04 05:04:19;;;;;;;5.50;2.10;;;8.70;99.90;;;;;;5048685;28;20068;-71
2021/05/04 05:06:45;;;;;;;5.03;2.03;;;8.70;99.90;;;;;;5032105;28;20090;-71
2021/05/04 05:09:12;;;;;;;7.65;2.42;;;8.70;99.90;;;;;;5050110;28;20049;-71
2021/05/04 05:11:38;;;;;;;6.93;1.80;;;8.80;99.90;;;;;;5047840;28;20056;-70
2021/05/04 05:14:07;;;;;;;8.45;2.08;;;8.80;99.90;;;;;;5050312;28;20131;-71
2021/05/04 05:16:34;;;;;;;4.97;1.90;;;8.80;99.90;;;;;;5049053;28;20044;-71
2021/05/04 05:19:01;;;;;;;5.47;1.60;;;8.80;99.90;;;;;;5036463;28;20129;-71
2021/05/04 05:21:27;;;;;;;5.90;1.63;;;8.90;99.90;;;;;;5047948;28;20045;-71
2021/05/04 05:23:54;;;;;;;4.75;1.77;;;8.80;99.90;;;;;;5045516;28;20051;-71
2021/05/04 05:26:23;;;;;;;5.57;1.08;;;8.80;99.90;;;;;;5048867;28;20044;-71
2021/05/04 05:28:53;;;;;;;5.82;1.15;;;8.90;99.90;;;;;;5046921;28;20052;-71
2021/05/04 05:31:21;;;;;;;3.80;1.40;;;8.90;99.90;;;;;;5046294;28;20049;-71
2021/05/04 05:33:48;;;;;;;5.55;1.50;;;8.90;99.90;;;;;;5047523;28;20488;-71
2021/05/04 05:36:15;;;;;;;8.70;1.73;;;8.80;99.90;;;;;;5047512;28;20049;-71
2021/05/04 05:38:42;;;;;;;6.10;1.23;;;8.70;99.90;;;;;;5044478;28;20460;-71
2021/05/04 05:41:08;;;;;;;3.80;0.85;;;8.50;99.90;;;;;;5049867;28;20396;-71
2021/05/04 05:43:34;;;;;;;4.00;0.80;;;8.40;99.90;;;;;;5036900;28;20041;-71
2021/05/04 05:46:02;;;;;;;3.65;0.73;;;8.20;99.90;;;;;;5048073;28;20095;-71
2021/05/04 05:48:30;;;;;;;5.80;1.00;;;8.00;99.90;;;;;;5044928;28;20102;-71
2021/05/04 05:50:56;;;;;;;5.07;1.15;;;7.90;99.90;;;;;;5048955;28;20380;-71
2021/05/04 05:53:25;;;;;;;5.43;1.02;;;7.70;99.90;;;;;;5045361;28;20400;-70
2021/05/04 05:55:51;;;;;;;4.63;0.90;;;7.60;99.90;;;;;;5047538;28;20107;-70
2021/05/04 05:58:18;;;;;;;3.42;0.80;;;7.50;99.90;;;;;;5046651;28;20480;-71
2021/05/04 06:00:44;;;;;;;4.05;0.90;;;7.40;99.90;;;;;;5049505;28;20136;-70
2021/05/04 06:03:10;;;;;;;8.25;1.05;;;7.40;99.90;;;;;;5044630;28;20055;-71
2021/05/04 06:05:37;;;;;;;5.00;0.70;;;7.30;99.90;;;;;;5047736;28;20045;-70
2021/05/04 06:08:04;;;;;;;4.18;0.70;;;7.30;99.90;;;;;;5050010;28;20056;-71
2021/05/04 06:10:30;;;;;;;3.97;0.82;;;7.20;99.90;;;;;;5048973;28;20136;-71
2021/05/04 06:13:07;;;;;;;3.83;0.77;;;7.20;99.90;;;;;;5043793;28;20052;-71
2021/05/04 06:15:36;;;;;;;7.72;1.00;;;7.20;99.90;;;;;;5043222;28;20497;-71
2021/05/04 06:18:03;;;;;;;3.08;1.05;;;7.20;99.90;;;;;;5041559;28;20374;-71
2021/05/04 06:20:29;;;;;;;4.32;0.80;;;7.20;99.90;;;;;;5047586;28;20143;-72
2021/05/04 06:22:55;;;;;;;2.72;0.80;;;7.30;99.90;;;;;;5041345;28;20691;-72
2021/05/04 06:25:22;;;;;;;5.03;1.65;;;7.30;99.90;;;;;;5041893;28;20451;-71
2021/05/04 06:27:48;;;;;;;6.30;1.63;;;7.50;99.90;;;;;;5038490;28;20044;-72
2021/05/04 06:30:15;;;;;;;4.95;2.00;;;7.70;99.90;;;;;;5045309;28;20080;-71
2021/05/04 06:32:42;;;;;;;6.30;1.75;;;7.80;99.90;;;;;;5052609;28;20426;-71
2021/05/04 06:35:12;;;;;;;5.07;2.17;;;8.00;99.90;;;;;;5047098;28;20048;-71
2021/05/04 06:37:38;;;;;;;5.85;2.58;;;8.20;99.90;;;;;;5045159;28;20044;-70
2021/05/04 06:40:05;;;;;;;6.68;2.33;;;8.30;99.90;;;;;;5047562;28;20495;-71
2021/05/04 06:42:32;;;;;;;4.65;1.70;;;8.40;99.90;;;;;;5044690;28;20045;-71
2021/05/04 06:44:58;;;;;;;7.97;2.30;;;8.40;99.90;;;;;;5046039;28;20519;-71
2021/05/04 06:47:24;;;;;;;13.45;3.10;;;8.50;99.90;;;;;;5051469;28;20045;-71
2021/05/04 06:49:50;;;;;;;10.25;3.08;;;8.60;99.90;;;;;;5047044;28;20049;-71
2021/05/04 06:52:17;;;;;;;11.02;2.67;;;8.60;99.90;;;;;;5044150;28;20092;-71
2021/05/04 06:54:44;;;;;;;11.40;2.47;;;8.60;99.90;;;;;;5045021;28;20489;-70
2021/05/04 06:57:11;;;;;;;11.10;2.17;;;8.60;99.90;;;;;;5044511;28;20490;-71
2021/05/04 06:59:38;;;;;;;9.27;2.33;;;8.60;99.90;;;;;;5046720;28;20480;-71
2021/05/04 07:02:07;;;;;;;13.93;2.60;;;8.70;99.90;;;;;;5045027;28;20040;-70
2021/05/04 07:04:33;;;;;;;14.60;3.42;;;8.70;99.90;;;;;;5044556;28;20311;-70
2021/05/04 07:06:59;;;;;;;16.70;2.83;;;8.70;99.90;;;;;;5044105;28;20064;-71
2021/05/04 07:09:26;;;;;;;14.80;2.63;;;8.70;99.90;;;;;;5046303;28;20098;-70
2021/05/04 07:11:52;;;;;;;13.65;2.58;;;8.60;99.90;;;;;;5044240;28;20055;-70
2021/05/04 07:14:19;;;;;;;13.77;2.72;;;8.60;99.90;;;;;;5045832;28;20380;-70
2021/05/04 07:16:47;;;;;;;10.85;2.17;;;8.70;99.90;;;;;;5043691;28;20049;-71
2021/05/04 07:19:13;;;;;;;16.95;2.42;;;8.60;99.90;;;;;;5046483;28;20407;-70
2021/05/04 07:21:39;;;;;;;9.23;2.13;;;8.60;99.90;;;;;;5043464;28;20056;-70
2021/05/04 07:24:08;;;;;;;10.47;2.27;;;8.70;99.90;;;;;;5044743;28;20045;-70
2021/05/04 07:26:35;;;;;;;11.85;2.58;;;8.70;99.90;;;;;;5043802;28;20049;-70
2021/05/04 07:29:09;;;;;;;11.48;1.90;;;8.80;99.90;;;;;;5045674;28;20475;-70
2021/05/04 07:31:35;;;;;;;10.52;2.08;;;8.90;99.90;;;;;;5044343;28;20098;-70
2021/05/04 07:34:02;;;;;;;13.05;2.15;;;9.00;99.90;;;;;;5051285;28;20461;-70
2021/05/04 07:36:30;;;;;;;6.22;2.00;;;9.10;99.90;;;;;;5043806;28;20053;-70
2021/05/04 07:38:59;;;;;;;6.25;2.10;;;9.20;99.90;;;;;;5045261;28;20136;-70
2021/05/04 07:41:26;;;;;;;10.70;3.28;;;9.30;99.90;;;;;;5043024;28;20080;-70
2021/05/04 07:43:52;;;;;;;7.97;2.28;;;9.40;99.90;;;;;;5044672;28;20055;-70
2021/05/04 07:46:19;;;;;;;9.38;2.20;;;9.40;99.90;;;;;;5045376;28;20040;-70
2021/05/04 07:48:45;;;;;;;9.75;2.00;;;9.50;99.90;;;;;;5044437;28;20143;-70
2021/05/04 07:51:15;;;;;;;9.07;2.08;;;9.50;99.90;;;;;;5044966;28;20049;-70
2021/05/04 07:53:42;;;;;;;7.97;2.10;;;9.50;99.90;;;;;;5039158;28;20127;-70
2021/05/04 07:56:08;;;;;;;8.07;2.05;;;9.40;99.90;;;;;;5046278;28;20057;-70
2021/05/04 07:58:34;;;;;;;8.95;1.75;;;9.20;99.90;;;;;;5041503;28;20049;-70
2021/05/04 08:01:00;;;;;;;10.32;2.00;;;9.10;99.90;;;;;;5040864;28;20494;-70
2021/05/04 08:03:27;;;;;;;8.18;2.25;;;9.10;99.90;;;;;;5041804;28;20415;-70
2021/05/04 08:05:54;;;;;;;13.55;2.67;;;9.10;99.90;;;;;;5044518;28;20124;-70
2021/05/04 08:08:21;;;;;;;8.40;2.75;;;9.10;99.90;;;;;;5043560;28;20131;-70
2021/05/04 08:10:47;;;;;;;6.15;2.40;;;9.10;99.90;;;;;;5044559;28;20049;-70
2021/05/04 08:13:14;;;;;;;10.82;3.05;;;9.00;99.90;;;;;;5041802;28;20045;-70
2021/05/04 08:15:40;;;;;;;13.25;3.33;;;9.10;99.90;;;;;;5042769;28;20464;-70
2021/05/04 08:18:11;;;;;;;9.88;2.50;;;9.10;99.90;;;;;;5043342;28;20049;-70
2021/05/04 08:20:47;;;;;;;13.00;3.10;;;9.10;99.90;;;;;;5045059;28;20044;-70
2021/05/04 08:23:14;;;;;;;7.43;1.98;;;9.10;99.90;;;;;;5045112;28;20053;-70
2021/05/04 08:25:40;;;;;;;6.68;2.05;;;9.00;99.90;;;;;;5043636;28;20462;-70
2021/05/04 08:28:06;;;;;;;12.60;2.72;;;8.90;99.90;;;;;;5044298;28;20127;-71
2021/05/04 08:30:33;;;;;;;7.05;2.75;;;8.90;99.90;;;;;;5042760;28;20330;-70
2021/05/04 08:33:01;;;;;;;11.65;3.28;;;9.10;99.90;;;;;;5042479;28;20055;-71
2021/05/04 08:35:29;;;;;;;11.95;2.60;;;9.20;99.90;;;;;;5044233;28;20053;-71
2021/05/04 08:37:57;;;;;;;7.82;2.05;;;9.30;99.90;;;;;;5042508;28;20045;-71
2021/05/04 08:40:25;;;;;;;10.18;2.35;;;9.30;99.90;;;;;;5045854;28;20124;-71
2021/05/04 08:42:52;;;;;;;5.97;1.38;;;9.10;99.90;;;;;;5042059;28;20095;-71
2021/05/04 08:45:19;;;;;;;8.20;1.58;;;9.00;99.90;;;;;;5032105;28;20036;-71
2021/05/04 08:47:50;;;;;;;3.70;1.23;;;8.80;99.90;;;;;;5042750;28;20373;-71
2021/05/04 08:50:19;;;;;;;7.18;1.95;;;8.70;99.90;;;;;;5048239;28;20098;-71
2021/05/04 08:52:46;;;;;;;14.05;2.67;;;8.70;99.90;;;;;;5044968;28;20484;-71
2021/05/04 08:55:14;;;;;;;7.75;2.70;;;8.70;99.90;;;;;;5044998;28;20060;-71
2021/05/04 08:57:40;;;;;;;7.70;2.22;;;8.80;99.90;;;;;;5042274;28;20065;-72
2021/05/04 09:00:14;;;;;;;10.35;1.70;;;8.90;99.90;;;;;;5044854;28;20419;-71
2021/05/04 09:06:00;;;;;;;8.32;2.05;;;9.30;99.90;;;;;;5002993;28;20549;-71
2021/05/04 09:16:37;;;;;;;8.52;1.55;;;9.70;99.90;;;;;;5043600;28;20132;-71
2021/05/04 09:21:43;;;;;;;8.65;1.95;;;9.50;99.90;;;;;;5041837;28;20045;-72
2021/05/04 09:24:18;;;;;;;9.45;2.05;;;9.30;99.90;;;;;;5040754;28;20506;-72
2021/05/04 09:26:45;;;;;;;7.05;2.00;;;9.20;99.90;;;;;;5043468;28;20098;-72
2021/05/04 09:29:15;;;;;;;9.20;2.60;;;9.00;99.90;;;;;;5043202;28;20049;-72
2021/05/04 09:31:42;;;;;;;7.60;2.50;;;8.90;99.90;;;;;;5039494;28;20140;-72
2021/05/04 09:34:11;;;;;;;10.98;2.30;;;9.00;99.90;;;;;;5042139;28;20204;-72
2021/05/04 09:37:03;;;;;;;10.55;2.10;;;9.10;99.90;;;;;;5042339;28;20071;-72
2021/05/04 09:39:32;;;;;;;7.85;2.55;;;9.10;99.90;;;;;;5041610;28;20053;-72
2021/05/04 09:42:01;;;;;;;11.30;2.40;;;9.20;99.90;;;;;;5044946;28;20043;-72
2021/05/04 09:44:38;;;;;;;13.00;2.20;;;9.10;99.90;;;;;;5043846;28;20045;-72
2021/05/04 09:47:06;;;;;;;8.88;1.80;;;9.10;99.90;;;;;;5043253;28;20073;-72
2021/05/04 09:49:35;;;;;;;8.45;1.63;;;9.10;99.90;;;;;;5042634;28;20041;-72
2021/05/04 09:55:08;;;;;;;7.45;1.50;;;9.10;99.90;;;;;;5043553;28;20056;-72
2021/05/04 09:57:42;;;;;;;8.55;1.45;;;9.10;99.90;;;;;;5041129;28;20160;-72
2021/05/04 10:00:17;;;;;;;4.18;1.10;;;8.90;99.90;;;;;;5042239;28;20048;-72
2021/05/04 10:02:43;;;;;;;3.88;0.90;;;8.80;99.90;;;;;;5040840;28;20029;-72
2021/05/04 10:05:14;;;;;;;8.35;3.55;;;8.80;99.90;;;;;;5041465;28;20156;-72
2021/05/04 10:07:41;;;;;;;5.72;1.42;;;8.90;99.90;;;;;;5042863;28;20045;-73
2021/05/04 10:10:12;;;;;;;6.28;1.35;;;9.10;99.90;;;;;;5044060;28;20041;-72
2021/05/04 10:12:42;;;;;;;4.95;1.02;;;9.20;99.90;;;;;;5039582;28;20049;-72
2021/05/04 10:15:12;;;;;;;6.07;0.88;;;9.30;99.90;;;;;;5043303;28;20128;-73
2021/05/04 10:17:39;;;;;;;4.70;0.98;;;9.30;99.90;;;;;;5056097;28;20067;-72
2021/05/04 10:20:09;;;;;;;;;;;9.10;99.90;;;;;;5043312;28;20041;-72
2021/05/04 10:22:37;;;;;;;8.00;1.40;;;8.90;99.90;;;;;;5038777;28;19921;-72
2021/05/04 10:25:08;;;;;;;7.45;1.13;;;8.70;99.90;;;;;;5049581;28;20407;-72
2021/05/04 10:27:36;;;;;;;5.35;1.00;;;8.50;99.90;;;;;;5039732;28;20059;-73
2021/05/04 10:30:05;;;;;;;4.55;1.10;;;8.40;99.90;;;;;;5042797;28;20136;-72
2021/05/04 10:32:48;;;;;;;;;;;8.30;99.90;;;;;;5038855;28;20761;-72
2021/05/04 10:35:30;;;;;;;6.28;1.02;;;8.30;99.90;;;;;;5041615;28;20419;-72
2021/05/04 10:37:57;;;;;;;4.40;1.08;;;8.30;99.90;;;;;;5041716;28;20127;-72
2021/05/04 10:40:30;;;;;;;8.55;1.30;;;8.30;99.90;;;;;;5041034;28;20417;-72
2021/05/04 10:43:21;;;;;;;5.45;1.65;;;8.50;99.90;;;;;;5039523;28;20545;-73
2021/05/04 10:45:49;;;;;;;3.30;1.00;;;8.60;99.90;;;;;;5039863;28;20396;-73
2021/05/04 10:48:16;;;;;;;5.68;1.00;;;8.80;99.90;;;;;;5038396;28;20099;-72
2021/05/04 10:50:53;;;;;;;5.20;0.85;;;8.80;99.90;;;;;;5040222;28;20053;-73
2021/05/04 10:53:21;;;;;;;8.75;0.82;;;8.80;99.90;;;;;;5038181;28;20059;-72
2021/05/04 10:55:53;;;;;;;7.30;0.83;;;8.90;99.90;;;;;;5034832;28;20059;-72
2021/05/04 10:58:27;;;;;;;2.75;0.88;;;9.10;99.90;;;;;;5030005;28;20666;-72
2021/05/04 11:01:01;;;;;;;6.72;0.88;;;9.30;99.90;;;;;;5040135;28;20112;-72
2021/05/04 11:03:33;;;;;;;5.30;1.27;;;9.40;99.90;;;;;;5039915;28;20488;-72
2021/05/04 11:06:07;;;;;;;3.50;0.90;;;9.40;99.90;;;;;;5026383;28;20144;-72
2021/05/04 11:08:47;;;;;;;6.80;1.23;;;9.40;99.90;;;;;;5033644;28;20040;-72
2021/05/04 11:11:33;;;;;;;5.85;1.00;;;9.40;99.90;;;;;;5040361;28;20045;-72
2021/05/04 11:14:01;;;;;;;4.65;1.20;;;9.40;99.90;;;;;;5037978;28;20055;-72
2021/05/04 11:16:32;;;;;;;;;;;9.40;99.90;;;;;;5043123;28;20520;-72
2021/05/04 11:19:41;;;;;;;6.47;1.08;;;9.50;99.90;;;;;;5040696;28;19924;-72
2021/05/04 11:22:10;;;;;;;8.13;1.00;;;9.50;99.90;;;;;;5044296;28;20193;-73
2021/05/04 11:24:40;;;;;;;7.00;1.05;;;9.50;99.90;;;;;;5041230;28;20332;-72
2021/05/04 11:27:09;;;;;;;4.80;1.08;;;9.50;99.90;;;;;;5044242;28;20071;-72
2021/05/04 11:29:37;;;;;;;5.38;1.13;;;9.60;99.90;;;;;;5043028;28;20055;-72
2021/05/04 11:32:10;;;;;;;5.25;1.35;;;9.60;99.90;;;;;;5044095;28;20053;-72
2021/05/04 11:34:50;;;;;;;6.85;0.90;;;9.60;99.90;;;;;;5043687;28;20105;-72
2021/05/04 11:37:19;;;;;;;;;;;9.60;99.90;;;;;;5045142;28;20057;-73
2021/05/04 11:40:02;;;;;;;4.30;0.93;;;9.60;99.90;;;;;;5039289;28;19939;-72
2021/05/04 11:42:39;;;;;;;3.42;0.80;;;9.60;99.90;;;;;;5045767;28;20398;-72
2021/05/04 11:45:13;;;;;;;2.43;0.60;;;9.60;99.90;;;;;;5044365;28;20037;-73
2021/05/04 11:47:43;;;;;;;3.08;0.85;;;9.70;99.90;;;;;;5042668;28;20394;-73
2021/05/04 11:50:09;;;;;;;5.45;0.82;;;9.80;99.90;;;;;;5040954;28;20055;-72
2021/05/04 11:52:37;;;;;;;3.03;0.88;;;9.80;99.90;;;;;;5044665;28;20495;-72
2021/05/04 11:55:14;;;;;;;4.43;0.98;;;9.90;99.90;;;;;;5045510;28;20051;-72
2021/05/04 11:57:42;;;;;;;4.25;1.13;;;10.00;99.90;;;;;;5044415;28;20044;-72
2021/05/04 12:00:11;;;;;;;2.92;0.80;;;10.00;99.90;;;;;;5043465;28;20044;-72
2021/05/04 12:02:38;;;;;;;4.50;0.77;;;10.00;99.90;;;;;;5046205;28;20045;-73
2021/05/04 12:05:06;;;;;;;3.10;0.77;;;10.10;99.90;;;;;;5044703;28;20041;-73
2021/05/04 12:07:44;;;;;;;5.85;1.00;;;10.20;99.90;;;;;;5045994;28;20036;-73
2021/05/04 12:10:13;;;;;;;5.65;0.90;;;10.20;99.90;;;;;;5042600;28;20048;-73
2021/05/04 12:12:42;;;;;;;4.30;0.63;;;10.40;99.90;;;;;;5044215;28;20041;-73
2021/05/04 12:15:09;;;;;;;4.47;0.70;;;10.40;99.90;;;;;;5044582;28;20170;-74
2021/05/04 12:17:36;;;;;;;2.43;0.60;;;10.50;99.90;;;;;;5045869;28;20045;-72
2021/05/04 12:20:17;;;;;;;4.65;0.90;;;10.40;99.90;;;;;;5058290;28;20080;-72
2021/05/04 12:22:48;;;;;;;3.35;0.90;;;10.30;99.90;;;;;;5033106;28;20051;-73
2021/05/04 12:25:16;;;;;;;3.25;0.95;;;10.20;99.90;;;;;;5044141;28;20040;-73
2021/05/04 12:27:44;;;;;;;3.00;0.80;;;10.20;99.90;;;;;;5043999;28;20052;-73
2021/05/04 12:30:19;;;;;;;2.87;0.93;;;10.20;99.90;;;;;;5043294;28;20060;-73
2021/05/04 12:32:47;;;;;;;5.05;0.90;;;10.20;99.90;;;;;;5044013;28;20311;-73
2021/05/04 12:35:18;;;;;;;4.47;0.90;;;10.20;99.90;;;;;;5041078;28;20089;-73
2021/05/04 12:37:47;;;;;;;3.85;0.90;;;10.20;99.90;;;;;;5045295;28;20037;-73
2021/05/04 12:40:19;;;;;;;4.32;1.00;;;10.30;99.90;;;;;;5044630;28;20059;-73
2021/05/04 12:42:48;;;;;;;6.50;1.15;;;10.30;99.90;;;;;;5043502;28;20047;-73
2021/05/04 12:45:15;;;;;;;4.28;0.93;;;10.30;99.90;;;;;;5043935;28;20163;-73
2021/05/04 12:47:53;;;;;;;4.07;0.82;;;10.30;99.90;;;;;;5049595;28;20130;-72
2021/05/04 12:50:30;;;;;;;6.57;0.90;;;10.20;99.90;;;;;;5044394;28;20819;-73
2021/05/04 12:52:57;;;;;;;4.18;0.90;;;10.00;99.90;;;;;;5044255;28;20106;-73
2021/05/04 12:55:23;;;;;;;5.30;1.15;;;9.80;99.90;;;;;;5042813;28;20065;-72
2021/05/04 12:58:08;;;;;;;5.40;1.00;;;9.70;99.90;;;;;;5043850;28;20057;-72
2021/05/04 13:00:34;;;;;;;2.67;0.80;;;9.60;99.90;;;;;;5040118;28;20045;-73
2021/05/04 13:03:17;;;;;;;4.82;0.95;;;9.50;99.90;;;;;;5043545;28;20076;-72
2021/05/04 13:05:44;;;;;;;3.40;0.82;;;9.70;99.90;;;;;;5043759;28;20044;-73
2021/05/04 13:08:11;;;;;;;3.30;0.60;;;10.00;99.90;;;;;;5040692;28;20467;-73
2021/05/04 13:10:59;;;;;;;3.95;0.88;;;10.30;99.90;;;;;;5041050;28;20051;-73
2021/05/04 13:13:56;;;;;;;4.97;0.90;;;10.60;99.90;;;;;;5043800;28;20492;-72
2021/05/04 13:30:36;;;;;;;5.82;1.00;;;10.30;99.90;;;;;;5042614;28;20153;-73
2021/05/04 13:33:05;;;;;;;4.55;0.75;;;10.30;99.90;;;;;;5042955;28;20159;-73